sensor_id;sensor_type;location;lat;lon;timestamp;temperature;humidity
37782;DHT22;23621;50.878;4.584;2022-10-18T00:00:05;23.20;83.70
37782;DHT22;23621;50.878;4.584;2022-10-18T00:02:32;23.20;83.70
37782;DHT22;23621;50.878;4.584;2022-10-18T00:04:59;23.20;83.80
37782;DHT22;23621;50.878;4.584;2022-10-18T00:07:26;23.20;83.80
37782;DHT22;23621;50.878;4.584;2022-10-18T00:09:53;23.20;83.90
37782;DHT22;23621;50.878;4.584;2022-10-18T00:12:20;23.20;83.90
37782;DHT22;23621;50.878;4.584;2022-10-18T00:14:50;23.20;83.90
37782;DHT22;23621;50.878;4.584;2022-10-18T00:17:17;23.20;83.90
37782;DHT22;23621;50.878;4.584;2022-10-18T00:19:44;23.20;83.80
37782;DHT22;23621;50.878;4.584;2022-10-18T00:22:12;23.20;83.80
37782;DHT22;23621;50.878;4.584;2022-10-18T00:24:38;23.20;83.70
37782;DHT22;23621;50.878;4.584;2022-10-18T00:27:05;23.30;83.80
37782;DHT22;23621;50.878;4.584;2022-10-18T00:29:32;23.30;83.80
37782;DHT22;23621;50.878;4.584;2022-10-18T00:31:59;23.30;83.80
37782;DHT22;23621;50.878;4.584;2022-10-18T00:34:26;23.20;83.70
37782;DHT22;23621;50.878;4.584;2022-10-18T00:36:52;23.20;83.80
37782;DHT22;23621;50.878;4.584;2022-10-18T00:39:21;23.20;83.80
37782;DHT22;23621;50.878;4.584;2022-10-18T00:41:48;23.20;83.90
37782;DHT22;23621;50.878;4.584;2022-10-18T00:46:44;23.20;83.90
37782;DHT22;23621;50.878;4.584;2022-10-18T00:49:14;23.20;83.90
37782;DHT22;23621;50.878;4.584;2022-10-18T00:51:48;23.20;83.90
37782;DHT22;23621;50.878;4.584;2022-10-18T00:54:16;23.20;84.00
37782;DHT22;23621;50.878;4.584;2022-10-18T00:56:45;23.20;84.00
37782;DHT22;23621;50.878;4.584;2022-10-18T00:59:14;23.20;84.00
37782;DHT22;23621;50.878;4.584;2022-10-18T01:01:42;23.20;84.10
37782;DHT22;23621;50.878;4.584;2022-10-18T01:04:09;23.10;84.00
37782;DHT22;23621;50.878;4.584;2022-10-18T01:07:03;23.20;84.10
37782;DHT22;23621;50.878;4.584;2022-10-18T01:12:56;23.10;84.00
37782;DHT22;23621;50.878;4.584;2022-10-18T01:23:32;23.10;83.90
37782;DHT22;23621;50.878;4.584;2022-10-18T01:31:53;23.00;83.70
37782;DHT22;23621;50.878;4.584;2022-10-18T01:34:27;23.00;83.90
37782;DHT22;23621;50.878;4.584;2022-10-18T01:36:58;23.00;83.80
37782;DHT22;23621;50.878;4.584;2022-10-18T01:39:33;23.00;83.80
37782;DHT22;23621;50.878;4.584;2022-10-18T01:42:05;23.00;83.80
37782;DHT22;23621;50.878;4.584;2022-10-18T01:44:34;23.00;83.80
37782;DHT22;23621;50.878;4.584;2022-10-18T01:47:03;23.00;83.80
37782;DHT22;23621;50.878;4.584;2022-10-18T01:49:32;23.00;83.70
37782;DHT22;23621;50.878;4.584;2022-10-18T01:51:59;23.00;83.70
37782;DHT22;23621;50.878;4.584;2022-10-18T01:54:29;23.00;83.70
37782;DHT22;23621;50.878;4.584;2022-10-18T01:57:15;23.00;83.80
37782;DHT22;23621;50.878;4.584;2022-10-18T02:00:03;22.90;83.70
37782;DHT22;23621;50.878;4.584;2022-10-18T02:02:55;22.90;83.80
37782;DHT22;23621;50.878;4.584;2022-10-18T02:05:50;22.90;83.80
37782;DHT22;23621;50.878;4.584;2022-10-18T02:10:59;22.90;83.90
37782;DHT22;23621;50.878;4.584;2022-10-18T02:13:30;22.90;83.90
37782;DHT22;23621;50.878;4.584;2022-10-18T02:16:07;22.90;83.80
37782;DHT22;23621;50.878;4.584;2022-10-18T02:18:56;22.90;83.80
37782;DHT22;23621;50.878;4.584;2022-10-18T02:21:24;22.90;83.80
37782;DHT22;23621;50.878;4.584;2022-10-18T02:23:53;22.90;83.80
37782;DHT22;23621;50.878;4.584;2022-10-18T02:26:20;22.90;83.80
37782;DHT22;23621;50.878;4.584;2022-10-18T02:28:47;22.90;83.70
37782;DHT22;23621;50.878;4.584;2022-10-18T02:31:31;22.90;83.70
37782;DHT22;23621;50.878;4.584;2022-10-18T02:34:13;22.90;83.60
37782;DHT22;23621;50.878;4.584;2022-10-18T02:36:45;22.80;83.50
37782;DHT22;23621;50.878;4.584;2022-10-18T02:39:17;22.80;83.60
37782;DHT22;23621;50.878;4.584;2022-10-18T02:41:45;22.80;83.50
37782;DHT22;23621;50.878;4.584;2022-10-18T02:44:12;22.80;83.50
37782;DHT22;23621;50.878;4.584;2022-10-18T02:46:39;22.80;83.50
37782;DHT22;23621;50.878;4.584;2022-10-18T02:49:06;22.80;83.50
37782;DHT22;23621;50.878;4.584;2022-10-18T02:51:33;22.80;83.40
37782;DHT22;23621;50.878;4.584;2022-10-18T02:54:00;22.70;83.40
37782;DHT22;23621;50.878;4.584;2022-10-18T02:56:27;22.70;83.40
37782;DHT22;23621;50.878;4.584;2022-10-18T02:58:53;22.70;83.40
37782;DHT22;23621;50.878;4.584;2022-10-18T03:01:20;22.70;83.30
37782;DHT22;23621;50.878;4.584;2022-10-18T03:03:47;22.70;84.10
37782;DHT22;23621;50.878;4.584;2022-10-18T03:06:14;22.70;83.30
37782;DHT22;23621;50.878;4.584;2022-10-18T03:08:41;22.70;83.30
37782;DHT22;23621;50.878;4.584;2022-10-18T03:11:08;22.70;83.30
37782;DHT22;23621;50.878;4.584;2022-10-18T03:13:35;22.70;83.30
37782;DHT22;23621;50.878;4.584;2022-10-18T03:16:01;22.70;83.40
37782;DHT22;23621;50.878;4.584;2022-10-18T03:18:28;22.70;83.40
37782;DHT22;23621;50.878;4.584;2022-10-18T03:20:55;22.70;83.50
37782;DHT22;23621;50.878;4.584;2022-10-18T03:23:22;22.70;83.40
37782;DHT22;23621;50.878;4.584;2022-10-18T03:25:49;22.70;83.50
37782;DHT22;23621;50.878;4.584;2022-10-18T03:28:16;22.70;83.50
37782;DHT22;23621;50.878;4.584;2022-10-18T03:30:42;22.70;83.50
37782;DHT22;23621;50.878;4.584;2022-10-18T03:33:09;22.70;83.50
37782;DHT22;23621;50.878;4.584;2022-10-18T03:35:36;22.70;83.50
37782;DHT22;23621;50.878;4.584;2022-10-18T03:38:02;22.80;83.60
37782;DHT22;23621;50.878;4.584;2022-10-18T03:40:29;22.70;83.60
37782;DHT22;23621;50.878;4.584;2022-10-18T03:43:01;22.70;83.60
37782;DHT22;23621;50.878;4.584;2022-10-18T03:45:28;22.70;83.70
37782;DHT22;23621;50.878;4.584;2022-10-18T03:47:57;22.70;83.70
37782;DHT22;23621;50.878;4.584;2022-10-18T03:50:24;22.80;83.80
37782;DHT22;23621;50.878;4.584;2022-10-18T03:52:50;22.80;83.80
37782;DHT22;23621;50.878;4.584;2022-10-18T03:55:17;22.80;83.70
37782;DHT22;23621;50.878;4.584;2022-10-18T03:57:44;22.80;83.70
37782;DHT22;23621;50.878;4.584;2022-10-18T04:00:11;22.80;83.70
37782;DHT22;23621;50.878;4.584;2022-10-18T04:02:38;22.80;83.80
37782;DHT22;23621;50.878;4.584;2022-10-18T04:05:05;22.80;83.70
37782;DHT22;23621;50.878;4.584;2022-10-18T04:07:34;22.80;83.80
37782;DHT22;23621;50.878;4.584;2022-10-18T04:10:02;22.80;83.80
37782;DHT22;23621;50.878;4.584;2022-10-18T04:12:29;22.80;83.80
37782;DHT22;23621;50.878;4.584;2022-10-18T04:14:56;22.80;83.80
37782;DHT22;23621;50.878;4.584;2022-10-18T04:17:22;22.80;83.80
37782;DHT22;23621;50.878;4.584;2022-10-18T04:19:49;22.80;83.80
37782;DHT22;23621;50.878;4.584;2022-10-18T04:22:16;22.70;83.70
37782;DHT22;23621;50.878;4.584;2022-10-18T04:24:43;22.80;83.80
37782;DHT22;23621;50.878;4.584;2022-10-18T04:27:10;22.80;83.80
37782;DHT22;23621;50.878;4.584;2022-10-18T04:29:37;22.80;83.90
37782;DHT22;23621;50.878;4.584;2022-10-18T04:32:03;22.80;83.80
37782;DHT22;23621;50.878;4.584;2022-10-18T04:34:30;22.80;83.80
37782;DHT22;23621;50.878;4.584;2022-10-18T04:36:57;22.80;83.80
37782;DHT22;23621;50.878;4.584;2022-10-18T04:39:24;22.80;83.80
37782;DHT22;23621;50.878;4.584;2022-10-18T04:41:51;22.70;83.70
37782;DHT22;23621;50.878;4.584;2022-10-18T04:44:17;22.70;83.80
37782;DHT22;23621;50.878;4.584;2022-10-18T04:46:44;22.70;83.90
37782;DHT22;23621;50.878;4.584;2022-10-18T04:49:11;22.70;83.90
37782;DHT22;23621;50.878;4.584;2022-10-18T04:51:38;22.70;83.90
37782;DHT22;23621;50.878;4.584;2022-10-18T04:54:05;22.70;83.90
37782;DHT22;23621;50.878;4.584;2022-10-18T04:56:32;22.70;83.80
37782;DHT22;23621;50.878;4.584;2022-10-18T04:58:58;22.70;83.80
37782;DHT22;23621;50.878;4.584;2022-10-18T05:01:25;22.70;83.70
37782;DHT22;23621;50.878;4.584;2022-10-18T05:03:53;22.70;83.70
37782;DHT22;23621;50.878;4.584;2022-10-18T05:06:21;22.70;83.70
37782;DHT22;23621;50.878;4.584;2022-10-18T05:08:48;22.70;83.70
37782;DHT22;23621;50.878;4.584;2022-10-18T05:11:15;22.70;83.60
37782;DHT22;23621;50.878;4.584;2022-10-18T05:13:42;22.70;83.60
37782;DHT22;23621;50.878;4.584;2022-10-18T05:16:14;22.70;83.60
37782;DHT22;23621;50.878;4.584;2022-10-18T05:18:41;22.70;83.70
37782;DHT22;23621;50.878;4.584;2022-10-18T05:21:08;22.70;83.70
37782;DHT22;23621;50.878;4.584;2022-10-18T05:23:35;22.70;83.70
37782;DHT22;23621;50.878;4.584;2022-10-18T05:26:04;22.70;83.70
37782;DHT22;23621;50.878;4.584;2022-10-18T05:28:31;22.70;83.80
37782;DHT22;23621;50.878;4.584;2022-10-18T05:31:08;22.70;83.70
37782;DHT22;23621;50.878;4.584;2022-10-18T05:33:52;22.70;83.70
37782;DHT22;23621;50.878;4.584;2022-10-18T05:36:19;22.70;83.70
37782;DHT22;23621;50.878;4.584;2022-10-18T05:38:46;22.70;83.80
37782;DHT22;23621;50.878;4.584;2022-10-18T05:41:14;22.70;83.70
37782;DHT22;23621;50.878;4.584;2022-10-18T05:43:40;22.70;83.70
37782;DHT22;23621;50.878;4.584;2022-10-18T05:46:07;22.70;83.80
37782;DHT22;23621;50.878;4.584;2022-10-18T05:48:42;22.70;83.80
37782;DHT22;23621;50.878;4.584;2022-10-18T05:51:09;22.70;83.80
37782;DHT22;23621;50.878;4.584;2022-10-18T05:53:36;22.70;83.70
37782;DHT22;23621;50.878;4.584;2022-10-18T05:56:05;22.70;83.60
37782;DHT22;23621;50.878;4.584;2022-10-18T05:58:32;22.70;83.60
37782;DHT22;23621;50.878;4.584;2022-10-18T06:01:04;22.60;83.50
37782;DHT22;23621;50.878;4.584;2022-10-18T06:03:31;22.60;83.60
37782;DHT22;23621;50.878;4.584;2022-10-18T06:06:00;22.60;83.50
37782;DHT22;23621;50.878;4.584;2022-10-18T06:08:27;22.60;83.40
37782;DHT22;23621;50.878;4.584;2022-10-18T06:10:54;22.50;83.30
37782;DHT22;23621;50.878;4.584;2022-10-18T06:13:21;22.50;83.20
37782;DHT22;23621;50.878;4.584;2022-10-18T06:15:48;22.50;83.20
37782;DHT22;23621;50.878;4.584;2022-10-18T06:18:15;22.50;83.20
37782;DHT22;23621;50.878;4.584;2022-10-18T06:20:42;22.50;83.20
37782;DHT22;23621;50.878;4.584;2022-10-18T06:23:09;22.50;83.20
37782;DHT22;23621;50.878;4.584;2022-10-18T06:25:35;22.40;83.10
37782;DHT22;23621;50.878;4.584;2022-10-18T06:28:06;22.40;83.10
37782;DHT22;23621;50.878;4.584;2022-10-18T06:30:37;22.40;83.10
37782;DHT22;23621;50.878;4.584;2022-10-18T06:33:04;22.40;83.10
37782;DHT22;23621;50.878;4.584;2022-10-18T06:35:31;22.40;83.10
37782;DHT22;23621;50.878;4.584;2022-10-18T06:37:57;22.30;83.00
37782;DHT22;23621;50.878;4.584;2022-10-18T06:40:24;22.40;83.10
37782;DHT22;23621;50.878;4.584;2022-10-18T06:42:51;22.40;83.00
37782;DHT22;23621;50.878;4.584;2022-10-18T06:45:32;22.30;82.90
37782;DHT22;23621;50.878;4.584;2022-10-18T06:47:59;22.30;83.00
37782;DHT22;23621;50.878;4.584;2022-10-18T06:50:26;22.30;83.00
37782;DHT22;23621;50.878;4.584;2022-10-18T06:52:52;22.30;83.00
37782;DHT22;23621;50.878;4.584;2022-10-18T06:55:19;22.30;83.00
37782;DHT22;23621;50.878;4.584;2022-10-18T06:57:46;22.40;83.10
37782;DHT22;23621;50.878;4.584;2022-10-18T07:00:13;22.40;83.10
37782;DHT22;23621;50.878;4.584;2022-10-18T07:02:40;22.40;83.10
37782;DHT22;23621;50.878;4.584;2022-10-18T07:05:08;22.40;83.10
37782;DHT22;23621;50.878;4.584;2022-10-18T07:07:35;22.40;83.00
37782;DHT22;23621;50.878;4.584;2022-10-18T07:10:05;22.40;83.10
37782;DHT22;23621;50.878;4.584;2022-10-18T07:12:32;22.30;82.90
37782;DHT22;23621;50.878;4.584;2022-10-18T07:14:59;22.30;82.90
37782;DHT22;23621;50.878;4.584;2022-10-18T07:17:28;22.30;82.90
37782;DHT22;23621;50.878;4.584;2022-10-18T07:19:56;22.30;82.90
37782;DHT22;23621;50.878;4.584;2022-10-18T07:22:23;22.30;82.80
37782;DHT22;23621;50.878;4.584;2022-10-18T07:24:55;22.30;82.80
37782;DHT22;23621;50.878;4.584;2022-10-18T07:27:22;22.20;82.80
37782;DHT22;23621;50.878;4.584;2022-10-18T07:29:49;22.20;82.80
37782;DHT22;23621;50.878;4.584;2022-10-18T07:32:15;22.20;82.80
37782;DHT22;23621;50.878;4.584;2022-10-18T07:34:42;22.20;82.80
37782;DHT22;23621;50.878;4.584;2022-10-18T07:37:09;22.20;82.70
37782;DHT22;23621;50.878;4.584;2022-10-18T07:39:36;22.20;82.80
37782;DHT22;23621;50.878;4.584;2022-10-18T07:42:03;22.20;82.80
37782;DHT22;23621;50.878;4.584;2022-10-18T07:44:29;22.10;82.60
37782;DHT22;23621;50.878;4.584;2022-10-18T07:46:56;22.20;82.60
37782;DHT22;23621;50.878;4.584;2022-10-18T07:49:23;22.10;82.50
37782;DHT22;23621;50.878;4.584;2022-10-18T07:51:50;22.10;82.40
37782;DHT22;23621;50.878;4.584;2022-10-18T07:54:17;22.10;82.40
37782;DHT22;23621;50.878;4.584;2022-10-18T07:56:44;22.10;82.40
37782;DHT22;23621;50.878;4.584;2022-10-18T07:59:10;22.10;82.40
37782;DHT22;23621;50.878;4.584;2022-10-18T08:01:38;22.10;82.40
37782;DHT22;23621;50.878;4.584;2022-10-18T08:04:05;22.00;82.40
37782;DHT22;23621;50.878;4.584;2022-10-18T08:06:35;22.10;82.50
37782;DHT22;23621;50.878;4.584;2022-10-18T08:09:02;22.10;82.60
37782;DHT22;23621;50.878;4.584;2022-10-18T08:11:29;22.10;82.60
37782;DHT22;23621;50.878;4.584;2022-10-18T08:13:56;22.10;82.70
37782;DHT22;23621;50.878;4.584;2022-10-18T08:16:27;22.20;82.80
37782;DHT22;23621;50.878;4.584;2022-10-18T08:18:57;22.20;82.90
37782;DHT22;23621;50.878;4.584;2022-10-18T08:21:24;22.30;82.90
37782;DHT22;23621;50.878;4.584;2022-10-18T08:23:51;22.30;82.90
37782;DHT22;23621;50.878;4.584;2022-10-18T08:26:21;22.30;82.90
37782;DHT22;23621;50.878;4.584;2022-10-18T08:28:48;22.30;82.90
37782;DHT22;23621;50.878;4.584;2022-10-18T08:31:29;22.40;82.90
37782;DHT22;23621;50.878;4.584;2022-10-18T08:33:56;22.40;82.80
37782;DHT22;23621;50.878;4.584;2022-10-18T08:36:23;22.50;82.90
37782;DHT22;23621;50.878;4.584;2022-10-18T08:38:50;22.50;82.80
37782;DHT22;23621;50.878;4.584;2022-10-18T08:44:19;22.60;82.90
37782;DHT22;23621;50.878;4.584;2022-10-18T08:46:54;22.60;82.90
37782;DHT22;23621;50.878;4.584;2022-10-18T08:49:25;22.60;82.90
37782;DHT22;23621;50.878;4.584;2022-10-18T08:51:55;22.60;82.90
37782;DHT22;23621;50.878;4.584;2022-10-18T08:54:34;22.60;82.90
37782;DHT22;23621;50.878;4.584;2022-10-18T08:57:04;22.70;83.00
37782;DHT22;23621;50.878;4.584;2022-10-18T08:59:39;22.70;83.00
37782;DHT22;23621;50.878;4.584;2022-10-18T09:02:40;22.70;83.10
37782;DHT22;23621;50.878;4.584;2022-10-18T09:05:24;22.70;83.00
37782;DHT22;23621;50.878;4.584;2022-10-18T09:08:10;22.70;83.00
37782;DHT22;23621;50.878;4.584;2022-10-18T09:10:48;22.70;83.00
37782;DHT22;23621;50.878;4.584;2022-10-18T09:14:09;22.80;82.90
37782;DHT22;23621;50.878;4.584;2022-10-18T09:16:44;22.80;82.70
37782;DHT22;23621;50.878;4.584;2022-10-18T09:22:15;22.80;82.70
37782;DHT22;23621;50.878;4.584;2022-10-18T09:25:04;22.80;82.60
37782;DHT22;23621;50.878;4.584;2022-10-18T09:28:40;22.90;82.60
37782;DHT22;23621;50.878;4.584;2022-10-18T09:30:55;22.80;82.40
37782;DHT22;23621;50.878;4.584;2022-10-18T09:36:07;22.90;82.50
37782;DHT22;23621;50.878;4.584;2022-10-18T09:38:44;23.00;82.50
37782;DHT22;23621;50.878;4.584;2022-10-18T09:41:26;23.00;82.30
37782;DHT22;23621;50.878;4.584;2022-10-18T09:46:40;23.10;82.00
37782;DHT22;23621;50.878;4.584;2022-10-18T09:49:31;23.20;82.00
37782;DHT22;23621;50.878;4.584;2022-10-18T09:52:03;23.30;81.70
37782;DHT22;23621;50.878;4.584;2022-10-18T09:54:39;23.30;81.60
37782;DHT22;23621;50.878;4.584;2022-10-18T09:57:16;23.40;81.60
37782;DHT22;23621;50.878;4.584;2022-10-18T09:59:48;23.40;81.30
37782;DHT22;23621;50.878;4.584;2022-10-18T10:02:18;23.40;81.20
37782;DHT22;23621;50.878;4.584;2022-10-18T10:04:47;23.50;81.10
37782;DHT22;23621;50.878;4.584;2022-10-18T10:07:17;23.50;81.00
37782;DHT22;23621;50.878;4.584;2022-10-18T10:10:12;23.40;81.20
37782;DHT22;23621;50.878;4.584;2022-10-18T10:12:41;23.40;80.70
37782;DHT22;23621;50.878;4.584;2022-10-18T10:15:19;23.40;80.80
37782;DHT22;23621;50.878;4.584;2022-10-18T10:17:54;23.40;80.70
37782;DHT22;23621;50.878;4.584;2022-10-18T10:20:46;23.40;80.60
37782;DHT22;23621;50.878;4.584;2022-10-18T10:25:53;23.40;80.20
37782;DHT22;23621;50.878;4.584;2022-10-18T10:28:23;23.40;80.00
37782;DHT22;23621;50.878;4.584;2022-10-18T10:30:51;23.40;80.00
37782;DHT22;23621;50.878;4.584;2022-10-18T10:33:31;23.40;80.00
37782;DHT22;23621;50.878;4.584;2022-10-18T10:36:00;23.40;79.80
37782;DHT22;23621;50.878;4.584;2022-10-18T10:38:29;23.40;79.80
37782;DHT22;23621;50.878;4.584;2022-10-18T10:40:56;23.40;79.70
37782;DHT22;23621;50.878;4.584;2022-10-18T10:46:12;23.40;79.40
37782;DHT22;23621;50.878;4.584;2022-10-18T10:48:50;23.50;79.40
37782;DHT22;23621;50.878;4.584;2022-10-18T10:51:39;23.50;79.20
37782;DHT22;23621;50.878;4.584;2022-10-18T10:56:59;23.50;78.80
37782;DHT22;23621;50.878;4.584;2022-10-18T10:59:38;23.50;78.70
37782;DHT22;23621;50.878;4.584;2022-10-18T11:04:51;23.50;78.90
37782;DHT22;23621;50.878;4.584;2022-10-18T11:12:42;23.70;78.50
37782;DHT22;23621;50.878;4.584;2022-10-18T11:23:28;23.60;78.40
37782;DHT22;23621;50.878;4.584;2022-10-18T11:42:40;23.80;77.80
37782;DHT22;23621;50.878;4.584;2022-10-18T12:05:02;23.90;74.60
37782;DHT22;23621;50.878;4.584;2022-10-18T12:08:04;23.90;74.10
37782;DHT22;23621;50.878;4.584;2022-10-18T12:10:34;24.00;73.70
37782;DHT22;23621;50.878;4.584;2022-10-18T12:13:28;24.00;74.20
37782;DHT22;23621;50.878;4.584;2022-10-18T12:16:01;24.10;74.50
37782;DHT22;23621;50.878;4.584;2022-10-18T12:18:29;24.00;73.60
37782;DHT22;23621;50.878;4.584;2022-10-18T12:20:58;24.00;72.90
37782;DHT22;23621;50.878;4.584;2022-10-18T12:26:13;24.10;72.00
37782;DHT22;23621;50.878;4.584;2022-10-18T12:29:05;24.10;72.10
37782;DHT22;23621;50.878;4.584;2022-10-18T12:42:25;24.20;71.70
37782;DHT22;23621;50.878;4.584;2022-10-18T12:45:30;24.20;71.80
37782;DHT22;23621;50.878;4.584;2022-10-18T12:48:02;24.20;72.10
37782;DHT22;23621;50.878;4.584;2022-10-18T12:55:46;24.30;72.60
37782;DHT22;23621;50.878;4.584;2022-10-18T13:16:33;24.40;72.10
37782;DHT22;23621;50.878;4.584;2022-10-18T13:19:26;24.40;72.20
37782;DHT22;23621;50.878;4.584;2022-10-18T13:22:17;24.40;72.20
37782;DHT22;23621;50.878;4.584;2022-10-18T13:25:04;24.40;72.20
37782;DHT22;23621;50.878;4.584;2022-10-18T13:33:31;24.50;72.10
37782;DHT22;23621;50.878;4.584;2022-10-18T13:41:21;24.60;73.60
37782;DHT22;23621;50.878;4.584;2022-10-18T13:46:24;24.70;72.90
37782;DHT22;23621;50.878;4.584;2022-10-18T14:06:26;24.70;72.10
37782;DHT22;23621;50.878;4.584;2022-10-18T14:11:39;24.60;72.40
37782;DHT22;23621;50.878;4.584;2022-10-18T14:14:26;24.70;72.50
37782;DHT22;23621;50.878;4.584;2022-10-18T14:20:19;24.70;72.20
37782;DHT22;23621;50.878;4.584;2022-10-18T14:23:24;24.70;72.30
37782;DHT22;23621;50.878;4.584;2022-10-18T14:26:08;24.70;72.10
37782;DHT22;23621;50.878;4.584;2022-10-18T14:28:35;24.70;72.20
37782;DHT22;23621;50.878;4.584;2022-10-18T14:31:22;24.70;72.30
37782;DHT22;23621;50.878;4.584;2022-10-18T14:33:53;24.70;72.10
37782;DHT22;23621;50.878;4.584;2022-10-18T14:36:26;24.70;71.80
37782;DHT22;23621;50.878;4.584;2022-10-18T14:38:58;24.70;71.30
37782;DHT22;23621;50.878;4.584;2022-10-18T14:41:34;24.70;70.90
37782;DHT22;23621;50.878;4.584;2022-10-18T14:46:51;24.70;71.00
37782;DHT22;23621;50.878;4.584;2022-10-18T14:49:19;24.70;71.20
37782;DHT22;23621;50.878;4.584;2022-10-18T14:51:50;24.70;71.20
37782;DHT22;23621;50.878;4.584;2022-10-18T14:54:30;24.70;71.00
37782;DHT22;23621;50.878;4.584;2022-10-18T14:56:59;24.70;70.70
37782;DHT22;23621;50.878;4.584;2022-10-18T14:59:29;24.70;70.80
37782;DHT22;23621;50.878;4.584;2022-10-18T15:02:13;24.70;70.80
37782;DHT22;23621;50.878;4.584;2022-10-18T15:04:43;24.70;70.70
37782;DHT22;23621;50.878;4.584;2022-10-18T15:07:15;24.60;70.30
37782;DHT22;23621;50.878;4.584;2022-10-18T15:09:43;24.70;70.30
37782;DHT22;23621;50.878;4.584;2022-10-18T15:12:13;24.60;70.20
37782;DHT22;23621;50.878;4.584;2022-10-18T15:14:41;24.70;70.30
37782;DHT22;23621;50.878;4.584;2022-10-18T15:17:17;24.60;70.10
37782;DHT22;23621;50.878;4.584;2022-10-18T15:20:23;24.70;70.10
37782;DHT22;23621;50.878;4.584;2022-10-18T15:22:51;24.70;70.10
37782;DHT22;23621;50.878;4.584;2022-10-18T15:25:28;24.70;70.30
37782;DHT22;23621;50.878;4.584;2022-10-18T15:28:00;24.70;69.90
37782;DHT22;23621;50.878;4.584;2022-10-18T15:30:38;24.60;69.80
37782;DHT22;23621;50.878;4.584;2022-10-18T15:33:22;24.60;69.70
37782;DHT22;23621;50.878;4.584;2022-10-18T15:35:51;24.60;69.70
37782;DHT22;23621;50.878;4.584;2022-10-18T15:38:28;24.60;69.80
37782;DHT22;23621;50.878;4.584;2022-10-18T15:40:57;24.60;70.00
37782;DHT22;23621;50.878;4.584;2022-10-18T15:45:58;24.60;70.20
37782;DHT22;23621;50.878;4.584;2022-10-18T15:48:37;24.60;70.40
37782;DHT22;23621;50.878;4.584;2022-10-18T15:51:07;24.60;70.70
37782;DHT22;23621;50.878;4.584;2022-10-18T15:53:41;24.60;70.80
37782;DHT22;23621;50.878;4.584;2022-10-18T15:56:27;24.60;70.90
37782;DHT22;23621;50.878;4.584;2022-10-18T15:58:56;24.60;70.80
37782;DHT22;23621;50.878;4.584;2022-10-18T16:01:41;24.50;70.80
37782;DHT22;23621;50.878;4.584;2022-10-18T16:06:44;24.50;70.80
37782;DHT22;23621;50.878;4.584;2022-10-18T16:09:16;24.40;70.80
37782;DHT22;23621;50.878;4.584;2022-10-18T16:11:44;24.40;70.70
37782;DHT22;23621;50.878;4.584;2022-10-18T16:14:11;24.40;70.80
37782;DHT22;23621;50.878;4.584;2022-10-18T16:16:38;24.40;70.90
37782;DHT22;23621;50.878;4.584;2022-10-18T16:19:06;24.40;71.00
37782;DHT22;23621;50.878;4.584;2022-10-18T16:21:36;24.30;71.20
37782;DHT22;23621;50.878;4.584;2022-10-18T16:24:04;24.30;71.60
37782;DHT22;23621;50.878;4.584;2022-10-18T16:26:31;24.20;72.00
37782;DHT22;23621;50.878;4.584;2022-10-18T16:28:59;24.20;72.40
37782;DHT22;23621;50.878;4.584;2022-10-18T16:31:29;24.10;72.60
37782;DHT22;23621;50.878;4.584;2022-10-18T16:33:57;24.00;72.90
37782;DHT22;23621;50.878;4.584;2022-10-18T16:36:29;23.90;73.00
37782;DHT22;23621;50.878;4.584;2022-10-18T16:39:00;23.90;73.10
37782;DHT22;23621;50.878;4.584;2022-10-18T16:41:27;23.80;73.00
37782;DHT22;23621;50.878;4.584;2022-10-18T16:43:54;23.80;73.00
37782;DHT22;23621;50.878;4.584;2022-10-18T16:46:23;23.70;73.20
37782;DHT22;23621;50.878;4.584;2022-10-18T16:48:53;23.70;73.40
37782;DHT22;23621;50.878;4.584;2022-10-18T16:51:20;23.70;73.50
37782;DHT22;23621;50.878;4.584;2022-10-18T16:53:47;23.60;73.50
37782;DHT22;23621;50.878;4.584;2022-10-18T16:56:23;23.50;73.40
37782;DHT22;23621;50.878;4.584;2022-10-18T16:58:50;23.50;73.40
37782;DHT22;23621;50.878;4.584;2022-10-18T17:01:19;23.40;73.30
37782;DHT22;23621;50.878;4.584;2022-10-18T17:03:46;23.40;73.50
37782;DHT22;23621;50.878;4.584;2022-10-18T17:06:17;23.40;73.60
37782;DHT22;23621;50.878;4.584;2022-10-18T17:08:44;23.30;73.50
37782;DHT22;23621;50.878;4.584;2022-10-18T17:11:13;23.30;73.60
37782;DHT22;23621;50.878;4.584;2022-10-18T17:13:40;23.20;73.60
37782;DHT22;23621;50.878;4.584;2022-10-18T17:16:34;23.10;73.70
37782;DHT22;23621;50.878;4.584;2022-10-18T17:19:02;23.10;73.80
37782;DHT22;23621;50.878;4.584;2022-10-18T17:21:30;23.00;73.90
37782;DHT22;23621;50.878;4.584;2022-10-18T17:23:59;22.90;73.90
37782;DHT22;23621;50.878;4.584;2022-10-18T17:26:30;22.90;74.00
37782;DHT22;23621;50.878;4.584;2022-10-18T17:29:01;22.80;74.00
37782;DHT22;23621;50.878;4.584;2022-10-18T17:31:29;22.80;74.20
37782;DHT22;23621;50.878;4.584;2022-10-18T17:33:56;22.70;74.20
37782;DHT22;23621;50.878;4.584;2022-10-18T17:36:24;22.60;74.20
37782;DHT22;23621;50.878;4.584;2022-10-18T17:38:52;22.60;74.20
37782;DHT22;23621;50.878;4.584;2022-10-18T17:41:20;22.50;74.20
37782;DHT22;23621;50.878;4.584;2022-10-18T17:43:47;22.50;74.30
37782;DHT22;23621;50.878;4.584;2022-10-18T17:46:14;22.40;74.30
37782;DHT22;23621;50.878;4.584;2022-10-18T17:48:41;22.40;74.40
37782;DHT22;23621;50.878;4.584;2022-10-18T17:51:10;22.30;74.30
37782;DHT22;23621;50.878;4.584;2022-10-18T17:53:37;22.30;74.30
37782;DHT22;23621;50.878;4.584;2022-10-18T17:56:04;22.20;74.30
37782;DHT22;23621;50.878;4.584;2022-10-18T17:58:31;22.20;74.30
37782;DHT22;23621;50.878;4.584;2022-10-18T18:01:20;22.10;74.30
37782;DHT22;23621;50.878;4.584;2022-10-18T18:03:54;22.10;74.30
37782;DHT22;23621;50.878;4.584;2022-10-18T18:06:24;22.00;74.30
37782;DHT22;23621;50.878;4.584;2022-10-18T18:08:57;21.90;74.30
37782;DHT22;23621;50.878;4.584;2022-10-18T18:11:26;21.90;74.40
37782;DHT22;23621;50.878;4.584;2022-10-18T18:13:57;21.80;74.40
37782;DHT22;23621;50.878;4.584;2022-10-18T18:16:28;21.80;74.40
37782;DHT22;23621;50.878;4.584;2022-10-18T18:18:57;21.80;74.40
37782;DHT22;23621;50.878;4.584;2022-10-18T18:21:25;21.70;74.40
37782;DHT22;23621;50.878;4.584;2022-10-18T18:23:52;21.60;74.30
37782;DHT22;23621;50.878;4.584;2022-10-18T18:26:19;21.60;74.30
37782;DHT22;23621;50.878;4.584;2022-10-18T18:28:47;21.60;74.30
37782;DHT22;23621;50.878;4.584;2022-10-18T18:31:17;21.50;74.30
37782;DHT22;23621;50.878;4.584;2022-10-18T18:33:44;21.50;74.30
37782;DHT22;23621;50.878;4.584;2022-10-18T18:36:11;21.40;74.30
37782;DHT22;23621;50.878;4.584;2022-10-18T18:38:39;21.40;74.30
37782;DHT22;23621;50.878;4.584;2022-10-18T18:41:20;21.30;74.20
37782;DHT22;23621;50.878;4.584;2022-10-18T18:43:55;21.30;74.30
37782;DHT22;23621;50.878;4.584;2022-10-18T18:46:24;21.30;74.30
37782;DHT22;23621;50.878;4.584;2022-10-18T18:48:51;21.20;74.30
37782;DHT22;23621;50.878;4.584;2022-10-18T18:51:19;21.20;74.20